sensor_id;sensor_type;location;lat;lon;timestamp;P1;durP1;ratioP1;P2;durP2;ratioP2
679;SDS011;322;48.846;9.230;2023-04-06T00:00:13;14.07;;;12.07;;
679;SDS011;322;48.846;9.230;2023-04-06T00:02:40;15.50;;;13.90;;
679;SDS011;322;48.846;9.230;2023-04-06T00:05:07;18.55;;;14.35;;
679;SDS011;322;48.846;9.230;2023-04-06T00:07:34;16.55;;;13.75;;
679;SDS011;322;48.846;9.230;2023-04-06T00:10:03;17.60;;;14.40;;
679;SDS011;322;48.846;9.230;2023-04-06T00:12:31;15.45;;;13.68;;
679;SDS011;322;48.846;9.230;2023-04-06T00:14:57;16.05;;;13.90;;
679;SDS011;322;48.846;9.230;2023-04-06T00:17:26;17.92;;;14.10;;
679;SDS011;322;48.846;9.230;2023-04-06T00:19:53;17.77;;;14.38;;
679;SDS011;322;48.846;9.230;2023-04-06T00:22:20;16.27;;;14.35;;
679;SDS011;322;48.846;9.230;2023-04-06T00:24:47;15.48;;;13.52;;
679;SDS011;322;48.846;9.230;2023-04-06T00:27:15;15.23;;;13.13;;
679;SDS011;322;48.846;9.230;2023-04-06T00:29:43;19.65;;;13.07;;
679;SDS011;322;48.846;9.230;2023-04-06T00:32:10;14.52;;;12.40;;
679;SDS011;322;48.846;9.230;2023-04-06T00:34:37;13.55;;;12.13;;
679;SDS011;322;48.846;9.230;2023-04-06T00:37:04;14.00;;;12.65;;
679;SDS011;322;48.846;9.230;2023-04-06T00:39:30;13.43;;;12.02;;
679;SDS011;322;48.846;9.230;2023-04-06T00:41:57;13.77;;;12.27;;
679;SDS011;322;48.846;9.230;2023-04-06T00:44:26;16.67;;;12.90;;
679;SDS011;322;48.846;9.230;2023-04-06T00:46:53;12.15;;;10.95;;
679;SDS011;322;48.846;9.230;2023-04-06T00:49:20;15.27;;;13.68;;
679;SDS011;322;48.846;9.230;2023-04-06T00:51:47;15.80;;;12.40;;
679;SDS011;322;48.846;9.230;2023-04-06T00:54:14;15.43;;;11.15;;
679;SDS011;322;48.846;9.230;2023-04-06T00:56:41;16.20;;;13.18;;
679;SDS011;322;48.846;9.230;2023-04-06T00:59:08;15.80;;;13.05;;
679;SDS011;322;48.846;9.230;2023-04-06T01:01:37;14.02;;;11.85;;
679;SDS011;322;48.846;9.230;2023-04-06T01:04:04;15.45;;;11.98;;
679;SDS011;322;48.846;9.230;2023-04-06T01:06:31;13.93;;;12.43;;
679;SDS011;322;48.846;9.230;2023-04-06T01:08:57;14.65;;;12.20;;
679;SDS011;322;48.846;9.230;2023-04-06T01:11:24;14.02;;;12.15;;
679;SDS011;322;48.846;9.230;2023-04-06T01:13:52;14.15;;;11.93;;
679;SDS011;322;48.846;9.230;2023-04-06T01:16:19;20.00;;;13.20;;
679;SDS011;322;48.846;9.230;2023-04-06T01:18:47;15.25;;;13.10;;
679;SDS011;322;48.846;9.230;2023-04-06T01:21:15;15.00;;;12.30;;
679;SDS011;322;48.846;9.230;2023-04-06T01:23:44;14.98;;;12.00;;
679;SDS011;322;48.846;9.230;2023-04-06T01:26:11;14.88;;;12.65;;
679;SDS011;322;48.846;9.230;2023-04-06T01:28:38;13.82;;;12.35;;
679;SDS011;322;48.846;9.230;2023-04-06T01:31:09;15.70;;;12.00;;
679;SDS011;322;48.846;9.230;2023-04-06T01:33:36;15.98;;;12.30;;
679;SDS011;322;48.846;9.230;2023-04-06T01:36:03;12.73;;;10.90;;
679;SDS011;322;48.846;9.230;2023-04-06T01:38:31;16.38;;;11.10;;
679;SDS011;322;48.846;9.230;2023-04-06T01:40:59;13.55;;;11.30;;
679;SDS011;322;48.846;9.230;2023-04-06T01:43:26;13.65;;;11.25;;
679;SDS011;322;48.846;9.230;2023-04-06T01:45:53;14.55;;;11.13;;
679;SDS011;322;48.846;9.230;2023-04-06T01:48:20;16.50;;;11.85;;
679;SDS011;322;48.846;9.230;2023-04-06T01:50:47;13.68;;;12.23;;
679;SDS011;322;48.846;9.230;2023-04-06T01:53:14;13.32;;;11.38;;
679;SDS011;322;48.846;9.230;2023-04-06T01:55:41;13.77;;;12.27;;
679;SDS011;322;48.846;9.230;2023-04-06T01:58:09;12.75;;;11.45;;
679;SDS011;322;48.846;9.230;2023-04-06T02:00:36;12.80;;;11.50;;
679;SDS011;322;48.846;9.230;2023-04-06T02:03:03;12.63;;;11.32;;
679;SDS011;322;48.846;9.230;2023-04-06T02:05:30;12.30;;;10.90;;
679;SDS011;322;48.846;9.230;2023-04-06T02:08:02;13.05;;;10.80;;
679;SDS011;322;48.846;9.230;2023-04-06T02:10:29;13.30;;;11.20;;
679;SDS011;322;48.846;9.230;2023-04-06T02:12:56;12.68;;;11.27;;
679;SDS011;322;48.846;9.230;2023-04-06T02:15:25;13.75;;;12.35;;
679;SDS011;322;48.846;9.230;2023-04-06T02:17:52;13.48;;;11.82;;
679;SDS011;322;48.846;9.230;2023-04-06T02:20:19;12.27;;;10.95;;
679;SDS011;322;48.846;9.230;2023-04-06T02:22:46;15.70;;;11.05;;
679;SDS011;322;48.846;9.230;2023-04-06T02:25:13;12.73;;;11.40;;
679;SDS011;322;48.846;9.230;2023-04-06T02:27:40;12.73;;;11.32;;
679;SDS011;322;48.846;9.230;2023-04-06T02:30:07;14.48;;;11.85;;
679;SDS011;322;48.846;9.230;2023-04-06T02:32:36;15.30;;;12.40;;
679;SDS011;322;48.846;9.230;2023-04-06T02:35:03;12.15;;;10.85;;
679;SDS011;322;48.846;9.230;2023-04-06T02:37:30;12.70;;;11.38;;
679;SDS011;322;48.846;9.230;2023-04-06T02:39:57;12.70;;;11.40;;
679;SDS011;322;48.846;9.230;2023-04-06T02:42:24;14.00;;;11.77;;
679;SDS011;322;48.846;9.230;2023-04-06T02:44:51;15.48;;;11.30;;
679;SDS011;322;48.846;9.230;2023-04-06T02:47:18;12.80;;;11.50;;
679;SDS011;322;48.846;9.230;2023-04-06T02:49:46;14.07;;;12.07;;
679;SDS011;322;48.846;9.230;2023-04-06T02:52:13;14.13;;;11.63;;
679;SDS011;322;48.846;9.230;2023-04-06T02:54:40;11.98;;;10.82;;
679;SDS011;322;48.846;9.230;2023-04-06T02:57:07;13.07;;;11.63;;
679;SDS011;322;48.846;9.230;2023-04-06T02:59:34;16.65;;;13.13;;
679;SDS011;322;48.846;9.230;2023-04-06T03:02:01;16.15;;;13.07;;
679;SDS011;322;48.846;9.230;2023-04-06T03:04:28;13.85;;;11.40;;
679;SDS011;322;48.846;9.230;2023-04-06T03:06:56;21.08;;;12.95;;
679;SDS011;322;48.846;9.230;2023-04-06T03:09:23;15.77;;;11.85;;
679;SDS011;322;48.846;9.230;2023-04-06T03:11:50;14.45;;;12.35;;
679;SDS011;322;48.846;9.230;2023-04-06T03:14:16;15.30;;;11.38;;
679;SDS011;322;48.846;9.230;2023-04-06T03:16:46;13.65;;;11.93;;
679;SDS011;322;48.846;9.230;2023-04-06T03:19:13;17.42;;;12.68;;
679;SDS011;322;48.846;9.230;2023-04-06T03:21:40;13.85;;;11.95;;
679;SDS011;322;48.846;9.230;2023-04-06T03:24:09;12.35;;;11.05;;
679;SDS011;322;48.846;9.230;2023-04-06T03:26:36;15.05;;;12.50;;
679;SDS011;322;48.846;9.230;2023-04-06T03:29:02;14.70;;;11.95;;
679;SDS011;322;48.846;9.230;2023-04-06T03:31:29;16.65;;;12.30;;
679;SDS011;322;48.846;9.230;2023-04-06T03:33:56;14.25;;;12.45;;
679;SDS011;322;48.846;9.230;2023-04-06T03:36:24;14.80;;;12.02;;
679;SDS011;322;48.846;9.230;2023-04-06T03:38:51;13.95;;;12.55;;
679;SDS011;322;48.846;9.230;2023-04-06T03:41:20;14.95;;;12.55;;
679;SDS011;322;48.846;9.230;2023-04-06T03:43:47;18.38;;;12.13;;
679;SDS011;322;48.846;9.230;2023-04-06T03:46:14;13.82;;;11.90;;
679;SDS011;322;48.846;9.230;2023-04-06T03:48:41;14.05;;;12.25;;
679;SDS011;322;48.846;9.230;2023-04-06T03:51:08;14.20;;;11.60;;
679;SDS011;322;48.846;9.230;2023-04-06T03:53:35;14.55;;;12.35;;
679;SDS011;322;48.846;9.230;2023-04-06T03:56:03;15.77;;;10.77;;
679;SDS011;322;48.846;9.230;2023-04-06T03:58:31;16.25;;;12.73;;
679;SDS011;322;48.846;9.230;2023-04-06T04:00:58;16.95;;;12.45;;
679;SDS011;322;48.846;9.230;2023-04-06T04:03:25;13.77;;;12.27;;
679;SDS011;322;48.846;9.230;2023-04-06T04:05:52;17.80;;;11.75;;
679;SDS011;322;48.846;9.230;2023-04-06T04:08:20;15.32;;;12.02;;
679;SDS011;322;48.846;9.230;2023-04-06T04:10:46;13.63;;;12.07;;
679;SDS011;322;48.846;9.230;2023-04-06T04:13:13;15.65;;;12.23;;
679;SDS011;322;48.846;9.230;2023-04-06T04:15:41;15.88;;;13.45;;
679;SDS011;322;48.846;9.230;2023-04-06T04:18:08;16.60;;;13.40;;
679;SDS011;322;48.846;9.230;2023-04-06T04:20:35;16.67;;;13.30;;
679;SDS011;322;48.846;9.230;2023-04-06T04:23:02;17.48;;;12.93;;
679;SDS011;322;48.846;9.230;2023-04-06T04:25:29;15.73;;;12.38;;
679;SDS011;322;48.846;9.230;2023-04-06T04:27:56;13.80;;;12.15;;
679;SDS011;322;48.846;9.230;2023-04-06T04:30:23;16.25;;;12.15;;
679;SDS011;322;48.846;9.230;2023-04-06T04:32:51;17.13;;;12.23;;
679;SDS011;322;48.846;9.230;2023-04-06T04:35:18;15.65;;;12.15;;
679;SDS011;322;48.846;9.230;2023-04-06T04:37:45;15.50;;;13.27;;
679;SDS011;322;48.846;9.230;2023-04-06T04:40:11;15.15;;;13.18;;
679;SDS011;322;48.846;9.230;2023-04-06T04:42:38;21.20;;;14.18;;
679;SDS011;322;48.846;9.230;2023-04-06T04:45:06;17.02;;;13.63;;
679;SDS011;322;48.846;9.230;2023-04-06T04:47:33;20.08;;;14.43;;
679;SDS011;322;48.846;9.230;2023-04-06T04:50:01;15.30;;;13.45;;
679;SDS011;322;48.846;9.230;2023-04-06T04:52:28;15.68;;;13.95;;
679;SDS011;322;48.846;9.230;2023-04-06T04:54:55;16.90;;;13.82;;
679;SDS011;322;48.846;9.230;2023-04-06T04:57:22;15.88;;;14.18;;
679;SDS011;322;48.846;9.230;2023-04-06T04:59:48;16.05;;;13.10;;
679;SDS011;322;48.846;9.230;2023-04-06T05:02:16;20.65;;;15.55;;
679;SDS011;322;48.846;9.230;2023-04-06T05:04:42;19.25;;;15.25;;
679;SDS011;322;48.846;9.230;2023-04-06T05:07:11;18.98;;;13.52;;
679;SDS011;322;48.846;9.230;2023-04-06T05:09:38;15.85;;;13.30;;
679;SDS011;322;48.846;9.230;2023-04-06T05:12:05;18.65;;;13.70;;
679;SDS011;322;48.846;9.230;2023-04-06T05:14:32;14.57;;;12.50;;
679;SDS011;322;48.846;9.230;2023-04-06T05:16:59;16.02;;;13.80;;
679;SDS011;322;48.846;9.230;2023-04-06T05:19:26;15.98;;;13.10;;
679;SDS011;322;48.846;9.230;2023-04-06T05:21:53;18.42;;;12.55;;
679;SDS011;322;48.846;9.230;2023-04-06T05:24:21;17.55;;;12.93;;
679;SDS011;322;48.846;9.230;2023-04-06T05:26:48;15.32;;;12.55;;
679;SDS011;322;48.846;9.230;2023-04-06T05:29:15;16.67;;;13.63;;
679;SDS011;322;48.846;9.230;2023-04-06T05:31:43;17.75;;;12.73;;
679;SDS011;322;48.846;9.230;2023-04-06T05:34:10;15.52;;;12.98;;
679;SDS011;322;48.846;9.230;2023-04-06T05:36:37;16.48;;;13.30;;
679;SDS011;322;48.846;9.230;2023-04-06T05:39:05;16.42;;;12.85;;
679;SDS011;322;48.846;9.230;2023-04-06T05:41:33;16.23;;;12.75;;
679;SDS011;322;48.846;9.230;2023-04-06T05:44:00;16.50;;;13.20;;
679;SDS011;322;48.846;9.230;2023-04-06T05:46:27;20.48;;;14.02;;
679;SDS011;322;48.846;9.230;2023-04-06T05:48:54;15.88;;;13.65;;
679;SDS011;322;48.846;9.230;2023-04-06T05:51:21;16.02;;;13.90;;
679;SDS011;322;48.846;9.230;2023-04-06T05:53:48;24.27;;;14.40;;
679;SDS011;322;48.846;9.230;2023-04-06T05:56:15;15.65;;;13.77;;
679;SDS011;322;48.846;9.230;2023-04-06T05:58:43;16.35;;;13.85;;
679;SDS011;322;48.846;9.230;2023-04-06T06:01:10;16.00;;;13.60;;
679;SDS011;322;48.846;9.230;2023-04-06T06:03:37;20.45;;;13.55;;
679;SDS011;322;48.846;9.230;2023-04-06T06:06:04;14.77;;;13.27;;
679;SDS011;322;48.846;9.230;2023-04-06T06:08:31;19.33;;;13.68;;
679;SDS011;322;48.846;9.230;2023-04-06T06:10:58;15.82;;;12.75;;
679;SDS011;322;48.846;9.230;2023-04-06T06:13:25;14.27;;;12.77;;
679;SDS011;322;48.846;9.230;2023-04-06T06:15:53;14.55;;;12.90;;
679;SDS011;322;48.846;9.230;2023-04-06T06:18:20;14.45;;;12.90;;
679;SDS011;322;48.846;9.230;2023-04-06T06:20:47;15.23;;;13.07;;
679;SDS011;322;48.846;9.230;2023-04-06T06:23:14;15.88;;;12.55;;
679;SDS011;322;48.846;9.230;2023-04-06T06:25:40;16.75;;;13.30;;
679;SDS011;322;48.846;9.230;2023-04-06T06:28:07;20.02;;;13.77;;
679;SDS011;322;48.846;9.230;2023-04-06T06:30:34;15.40;;;13.60;;
679;SDS011;322;48.846;9.230;2023-04-06T06:33:02;15.50;;;13.90;;
679;SDS011;322;48.846;9.230;2023-04-06T06:35:29;17.20;;;13.50;;
679;SDS011;322;48.846;9.230;2023-04-06T06:37:56;16.77;;;13.07;;
679;SDS011;322;48.846;9.230;2023-04-06T06:40:23;14.48;;;12.98;;
679;SDS011;322;48.846;9.230;2023-04-06T06:42:51;17.67;;;13.27;;
679;SDS011;322;48.846;9.230;2023-04-06T06:45:17;18.85;;;14.98;;
679;SDS011;322;48.846;9.230;2023-04-06T06:47:45;15.40;;;13.80;;
679;SDS011;322;48.846;9.230;2023-04-06T06:50:13;16.63;;;13.50;;
679;SDS011;322;48.846;9.230;2023-04-06T06:52:40;16.88;;;13.80;;
679;SDS011;322;48.846;9.230;2023-04-06T06:55:08;32.97;;;16.25;;
679;SDS011;322;48.846;9.230;2023-04-06T06:57:38;15.98;;;13.65;;
679;SDS011;322;48.846;9.230;2023-04-06T07:00:07;14.32;;;12.65;;
679;SDS011;322;48.846;9.230;2023-04-06T07:02:36;18.05;;;13.32;;
679;SDS011;322;48.846;9.230;2023-04-06T07:05:03;15.27;;;12.73;;
679;SDS011;322;48.846;9.230;2023-04-06T07:07:33;17.02;;;13.25;;
679;SDS011;322;48.846;9.230;2023-04-06T07:10:00;14.17;;;12.73;;
679;SDS011;322;48.846;9.230;2023-04-06T07:12:27;18.67;;;14.05;;
679;SDS011;322;48.846;9.230;2023-04-06T07:14:54;15.33;;;12.63;;
679;SDS011;322;48.846;9.230;2023-04-06T07:17:21;14.97;;;13.37;;
679;SDS011;322;48.846;9.230;2023-04-06T07:19:48;16.63;;;13.43;;
679;SDS011;322;48.846;9.230;2023-04-06T07:22:15;16.67;;;13.63;;
679;SDS011;322;48.846;9.230;2023-04-06T07:24:43;16.83;;;13.47;;
679;SDS011;322;48.846;9.230;2023-04-06T07:27:10;17.50;;;13.10;;
679;SDS011;322;48.846;9.230;2023-04-06T07:29:37;14.13;;;12.30;;
679;SDS011;322;48.846;9.230;2023-04-06T07:32:04;14.37;;;12.50;;
679;SDS011;322;48.846;9.230;2023-04-06T07:34:31;20.60;;;13.40;;
679;SDS011;322;48.846;9.230;2023-04-06T07:36:58;15.07;;;13.50;;
679;SDS011;322;48.846;9.230;2023-04-06T07:39:25;14.03;;;12.53;;
679;SDS011;322;48.846;9.230;2023-04-06T07:41:54;15.87;;;14.17;;
679;SDS011;322;48.846;9.230;2023-04-06T07:44:21;14.40;;;12.90;;
679;SDS011;322;48.846;9.230;2023-04-06T07:46:48;14.00;;;12.60;;
679;SDS011;322;48.846;9.230;2023-04-06T07:49:15;15.87;;;14.00;;
679;SDS011;322;48.846;9.230;2023-04-06T07:51:41;13.80;;;12.30;;
679;SDS011;322;48.846;9.230;2023-04-06T07:54:08;15.90;;;13.57;;
679;SDS011;322;48.846;9.230;2023-04-06T07:56:35;16.87;;;14.33;;
679;SDS011;322;48.846;9.230;2023-04-06T07:59:04;16.60;;;13.27;;
679;SDS011;322;48.846;9.230;2023-04-06T08:01:30;14.07;;;12.30;;
679;SDS011;322;48.846;9.230;2023-04-06T08:03:57;15.10;;;13.53;;
679;SDS011;322;48.846;9.230;2023-04-06T08:06:27;17.50;;;13.07;;
679;SDS011;322;48.846;9.230;2023-04-06T08:08:54;13.87;;;12.37;;
679;SDS011;322;48.846;9.230;2023-04-06T08:11:21;15.10;;;13.50;;
679;SDS011;322;48.846;9.230;2023-04-06T08:13:48;15.00;;;13.60;;
679;SDS011;322;48.846;9.230;2023-04-06T08:16:16;13.27;;;12.07;;
679;SDS011;322;48.846;9.230;2023-04-06T08:18:43;14.63;;;13.17;;
679;SDS011;322;48.846;9.230;2023-04-06T08:21:10;15.13;;;13.37;;
679;SDS011;322;48.846;9.230;2023-04-06T08:23:37;14.90;;;13.33;;
679;SDS011;322;48.846;9.230;2023-04-06T08:26:04;18.73;;;13.70;;
679;SDS011;322;48.846;9.230;2023-04-06T08:28:31;15.07;;;13.37;;
679;SDS011;322;48.846;9.230;2023-04-06T08:30:59;14.47;;;13.03;;
679;SDS011;322;48.846;9.230;2023-04-06T08:33:31;13.87;;;12.57;;
679;SDS011;322;48.846;9.230;2023-04-06T08:36:06;14.10;;;12.60;;
679;SDS011;322;48.846;9.230;2023-04-06T08:38:33;13.97;;;12.47;;
679;SDS011;322;48.846;9.230;2023-04-06T08:41:00;18.77;;;13.10;;
679;SDS011;322;48.846;9.230;2023-04-06T08:43:33;13.07;;;11.80;;
679;SDS011;322;48.846;9.230;2023-04-06T08:46:07;13.27;;;11.93;;
679;SDS011;322;48.846;9.230;2023-04-06T08:48:36;13.80;;;11.80;;
679;SDS011;322;48.846;9.230;2023-04-06T08:51:05;13.50;;;12.10;;
679;SDS011;322;48.846;9.230;2023-04-06T08:53:32;11.60;;;10.50;;
679;SDS011;322;48.846;9.230;2023-04-06T08:55:59;15.37;;;11.40;;
679;SDS011;322;48.846;9.230;2023-04-06T08:58:27;12.60;;;11.40;;
679;SDS011;322;48.846;9.230;2023-04-06T09:00:56;12.97;;;10.60;;
679;SDS011;322;48.846;9.230;2023-04-06T09:03:24;11.77;;;10.50;;
679;SDS011;322;48.846;9.230;2023-04-06T09:05:55;14.40;;;12.90;;
679;SDS011;322;48.846;9.230;2023-04-06T09:08:22;13.03;;;11.00;;
679;SDS011;322;48.846;9.230;2023-04-06T09:10:49;10.90;;;9.80;;
679;SDS011;322;48.846;9.230;2023-04-06T09:13:17;12.23;;;10.53;;
679;SDS011;322;48.846;9.230;2023-04-06T09:15:44;11.93;;;10.77;;
679;SDS011;322;48.846;9.230;2023-04-06T09:18:11;12.37;;;9.70;;
679;SDS011;322;48.846;9.230;2023-04-06T09:20:38;10.60;;;9.50;;
679;SDS011;322;48.846;9.230;2023-04-06T09:23:06;12.70;;;10.67;;
679;SDS011;322;48.846;9.230;2023-04-06T09:25:44;14.10;;;12.30;;
679;SDS011;322;48.846;9.230;2023-04-06T09:28:10;13.90;;;11.70;;
679;SDS011;322;48.846;9.230;2023-04-06T09:30:47;15.60;;;11.27;;
679;SDS011;322;48.846;9.230;2023-04-06T09:33:21;12.27;;;11.07;;
679;SDS011;322;48.846;9.230;2023-04-06T09:35:49;15.37;;;11.50;;
679;SDS011;322;48.846;9.230;2023-04-06T09:38:18;12.80;;;11.60;;
679;SDS011;322;48.846;9.230;2023-04-06T09:40:48;13.73;;;12.30;;
679;SDS011;322;48.846;9.230;2023-04-06T09:43:23;12.50;;;11.30;;
679;SDS011;322;48.846;9.230;2023-04-06T09:45:51;11.87;;;10.60;;
679;SDS011;322;48.846;9.230;2023-04-06T09:48:19;12.53;;;11.17;;
679;SDS011;322;48.846;9.230;2023-04-06T09:50:47;12.37;;;11.17;;
679;SDS011;322;48.846;9.230;2023-04-06T09:53:18;13.07;;;11.87;;
679;SDS011;322;48.846;9.230;2023-04-06T09:55:46;12.03;;;10.73;;
679;SDS011;322;48.846;9.230;2023-04-06T09:58:18;12.53;;;11.27;;
679;SDS011;322;48.846;9.230;2023-04-06T10:00:53;12.37;;;11.27;;
679;SDS011;322;48.846;9.230;2023-04-06T10:03:25;15.70;;;12.60;;
679;SDS011;322;48.846;9.230;2023-04-06T10:05:59;13.10;;;11.80;;
679;SDS011;322;48.846;9.230;2023-04-06T10:08:31;12.90;;;11.63;;
679;SDS011;322;48.846;9.230;2023-04-06T10:11:01;11.23;;;10.13;;
679;SDS011;322;48.846;9.230;2023-04-06T10:13:28;12.07;;;10.97;;
679;SDS011;322;48.846;9.230;2023-04-06T10:15:55;11.80;;;10.60;;
679;SDS011;322;48.846;9.230;2023-04-06T10:18:23;12.53;;;11.33;;
679;SDS011;322;48.846;9.230;2023-04-06T10:20:51;13.50;;;12.20;;
679;SDS011;322;48.846;9.230;2023-04-06T10:23:22;13.27;;;12.03;;
679;SDS011;322;48.846;9.230;2023-04-06T10:25:57;12.97;;;11.70;;
679;SDS011;322;48.846;9.230;2023-04-06T10:28:29;12.47;;;11.47;;
679;SDS011;322;48.846;9.230;2023-04-06T10:30:57;12.37;;;11.10;;
679;SDS011;322;48.846;9.230;2023-04-06T10:33:26;12.13;;;10.83;;
679;SDS011;322;48.846;9.230;2023-04-06T10:35:53;12.27;;;11.07;;
679;SDS011;322;48.846;9.230;2023-04-06T10:38:21;11.93;;;10.30;;
679;SDS011;322;48.846;9.230;2023-04-06T10:41:04;11.50;;;10.40;;
679;SDS011;322;48.846;9.230;2023-04-06T10:43:32;10.70;;;9.60;;
679;SDS011;322;48.846;9.230;2023-04-06T10:46:01;10.50;;;9.60;;
679;SDS011;322;48.846;9.230;2023-04-06T10:48:36;11.07;;;10.00;;
679;SDS011;322;48.846;9.230;2023-04-06T10:51:07;12.50;;;11.20;;
679;SDS011;322;48.846;9.230;2023-04-06T10:53:35;12.30;;;11.10;;
679;SDS011;322;48.846;9.230;2023-04-06T10:56:02;12.13;;;10.93;;
679;SDS011;322;48.846;9.230;2023-04-06T10:58:35;12.03;;;11.00;;
679;SDS011;322;48.846;9.230;2023-04-06T11:01:02;11.93;;;10.70;;
679;SDS011;322;48.846;9.230;2023-04-06T11:03:29;11.97;;;10.87;;
679;SDS011;322;48.846;9.230;2023-04-06T11:05:57;12.47;;;11.33;;
679;SDS011;322;48.846;9.230;2023-04-06T11:08:28;11.30;;;10.30;;
679;SDS011;322;48.846;9.230;2023-04-06T11:11:07;12.83;;;11.53;;
679;SDS011;322;48.846;9.230;2023-04-06T11:13:36;11.00;;;9.90;;
679;SDS011;322;48.846;9.230;2023-04-06T11:16:11;11.67;;;10.47;;
679;SDS011;322;48.846;9.230;2023-04-06T11:18:46;10.30;;;9.20;;
679;SDS011;322;48.846;9.230;2023-04-06T11:21:16;11.10;;;9.80;;
679;SDS011;322;48.846;9.230;2023-04-06T11:23:43;12.60;;;11.40;;
679;SDS011;322;48.846;9.230;2023-04-06T11:26:12;10.33;;;9.33;;
679;SDS011;322;48.846;9.230;2023-04-06T11:28:40;11.80;;;10.70;;
679;SDS011;322;48.846;9.230;2023-04-06T11:31:08;12.27;;;11.07;;
679;SDS011;322;48.846;9.230;2023-04-06T11:33:35;11.43;;;10.33;;
679;SDS011;322;48.846;9.230;2023-04-06T11:36:03;11.27;;;9.87;;
679;SDS011;322;48.846;9.230;2023-04-06T11:38:31;10.03;;;9.13;;
679;SDS011;322;48.846;9.230;2023-04-06T11:40:58;12.13;;;11.03;;
679;SDS011;322;48.846;9.230;2023-04-06T11:43:30;10.20;;;9.10;;
679;SDS011;322;48.846;9.230;2023-04-06T11:46:00;9.37;;;8.47;;
679;SDS011;322;48.846;9.230;2023-04-06T11:48:28;9.73;;;8.60;;
679;SDS011;322;48.846;9.230;2023-04-06T11:50:55;8.17;;;7.43;;
679;SDS011;322;48.846;9.230;2023-04-06T11:53:23;8.90;;;8.00;;
679;SDS011;322;48.846;9.230;2023-04-06T11:55:50;9.20;;;8.30;;
679;SDS011;322;48.846;9.230;2023-04-06T11:58:17;9.00;;;8.07;;
679;SDS011;322;48.846;9.230;2023-04-06T12:00:46;8.67;;;7.93;;
679;SDS011;322;48.846;9.230;2023-04-06T12:03:13;8.97;;;8.10;;
679;SDS011;322;48.846;9.230;2023-04-06T12:05:40;8.23;;;7.43;;
679;SDS011;322;48.846;9.230;2023-04-06T12:08:06;7.80;;;7.00;;
679;SDS011;322;48.846;9.230;2023-04-06T12:10:33;10.00;;;8.53;;
679;SDS011;322;48.846;9.230;2023-04-06T12:13:00;9.47;;;8.67;;
679;SDS011;322;48.846;9.230;2023-04-06T12:15:27;9.30;;;8.40;;
679;SDS011;322;48.846;9.230;2023-04-06T12:17:55;8.80;;;8.10;;
679;SDS011;322;48.846;9.230;2023-04-06T12:20:22;9.33;;;8.63;;
679;SDS011;322;48.846;9.230;2023-04-06T12:22:49;9.80;;;8.90;;
679;SDS011;322;48.846;9.230;2023-04-06T12:25:16;7.57;;;6.87;;
679;SDS011;322;48.846;9.230;2023-04-06T12:27:43;8.50;;;7.70;;
679;SDS011;322;48.846;9.230;2023-04-06T12:30:10;9.70;;;8.83;;
679;SDS011;322;48.846;9.230;2023-04-06T12:32:37;9.53;;;8.73;;
679;SDS011;322;48.846;9.230;2023-04-06T12:35:06;9.30;;;8.50;;
679;SDS011;322;48.846;9.230;2023-04-06T12:37:34;9.53;;;8.63;;
679;SDS011;322;48.846;9.230;2023-04-06T12:40:01;8.73;;;7.93;;
679;SDS011;322;48.846;9.230;2023-04-06T12:42:29;9.83;;;8.93;;
679;SDS011;322;48.846;9.230;2023-04-06T12:44:56;9.13;;;8.33;;
679;SDS011;322;48.846;9.230;2023-04-06T12:47:22;9.53;;;8.50;;
679;SDS011;322;48.846;9.230;2023-04-06T12:49:51;9.30;;;8.47;;
679;SDS011;322;48.846;9.230;2023-04-06T12:52:20;10.57;;;8.77;;
679;SDS011;322;48.846;9.230;2023-04-06T12:54:47;8.83;;;8.00;;
679;SDS011;322;48.846;9.230;2023-04-06T12:57:14;8.30;;;7.50;;
679;SDS011;322;48.846;9.230;2023-04-06T12:59:42;9.53;;;8.50;;
679;SDS011;322;48.846;9.230;2023-04-06T13:02:09;8.10;;;7.40;;
679;SDS011;322;48.846;9.230;2023-04-06T13:04:36;8.90;;;7.97;;
679;SDS011;322;48.846;9.230;2023-04-06T13:07:03;9.00;;;8.10;;
679;SDS011;322;48.846;9.230;2023-04-06T13:09:31;8.70;;;7.90;;
679;SDS011;322;48.846;9.230;2023-04-06T13:11:58;8.20;;;7.20;;
679;SDS011;322;48.846;9.230;2023-04-06T13:14:26;8.03;;;7.23;;
679;SDS011;322;48.846;9.230;2023-04-06T13:16:52;8.00;;;7.20;;
679;SDS011;322;48.846;9.230;2023-04-06T13:19:19;8.10;;;7.30;;
679;SDS011;322;48.846;9.230;2023-04-06T13:21:46;7.70;;;7.00;;
679;SDS011;322;48.846;9.230;2023-04-06T13:24:13;9.63;;;7.83;;
679;SDS011;322;48.846;9.230;2023-04-06T13:26:41;8.33;;;7.03;;
679;SDS011;322;48.846;9.230;2023-04-06T13:29:08;7.80;;;7.10;;
679;SDS011;322;48.846;9.230;2023-04-06T13:31:35;7.80;;;7.10;;
679;SDS011;322;48.846;9.230;2023-04-06T13:34:03;8.30;;;7.00;;
679;SDS011;322;48.846;9.230;2023-04-06T13:36:29;8.50;;;7.57;;
679;SDS011;322;48.846;9.230;2023-04-06T13:38:57;6.73;;;6.10;;
679;SDS011;322;48.846;9.230;2023-04-06T13:41:24;7.93;;;7.10;;
679;SDS011;322;48.846;9.230;2023-04-06T13:43:53;7.97;;;7.27;;
679;SDS011;322;48.846;9.230;2023-04-06T13:46:20;8.20;;;7.33;;
679;SDS011;322;48.846;9.230;2023-04-06T13:48:48;8.93;;;7.90;;
679;SDS011;322;48.846;9.230;2023-04-06T13:51:16;9.53;;;7.70;;
679;SDS011;322;48.846;9.230;2023-04-06T13:53:42;7.57;;;6.87;;
679;SDS011;322;48.846;9.230;2023-04-06T13:56:09;9.63;;;7.40;;
679;SDS011;322;48.846;9.230;2023-04-06T13:58:36;7.87;;;7.10;;
679;SDS011;322;48.846;9.230;2023-04-06T14:01:05;9.13;;;7.47;;
679;SDS011;322;48.846;9.230;2023-04-06T14:03:34;8.23;;;7.33;;
679;SDS011;322;48.846;9.230;2023-04-06T14:06:08;8.73;;;7.30;;
679;SDS011;322;48.846;9.230;2023-04-06T14:08:36;8.10;;;7.47;;
679;SDS011;322;48.846;9.230;2023-04-06T14:11:03;8.03;;;7.23;;
679;SDS011;322;48.846;9.230;2023-04-06T14:13:30;7.90;;;7.03;;
679;SDS011;322;48.846;9.230;2023-04-06T14:15:57;8.00;;;7.33;;
679;SDS011;322;48.846;9.230;2023-04-06T14:18:25;8.60;;;6.80;;
679;SDS011;322;48.846;9.230;2023-04-06T14:20:55;8.03;;;7.23;;
679;SDS011;322;48.846;9.230;2023-04-06T14:23:23;9.67;;;8.13;;
679;SDS011;322;48.846;9.230;2023-04-06T14:25:51;9.00;;;8.00;;
679;SDS011;322;48.846;9.230;2023-04-06T14:28:26;8.90;;;8.00;;
679;SDS011;322;48.846;9.230;2023-04-06T14:30:53;12.70;;;7.63;;
679;SDS011;322;48.846;9.230;2023-04-06T14:33:20;9.10;;;7.57;;
679;SDS011;322;48.846;9.230;2023-04-06T14:35:48;8.80;;;7.83;;
679;SDS011;322;48.846;9.230;2023-04-06T14:38:15;9.07;;;8.23;;
679;SDS011;322;48.846;9.230;2023-04-06T14:40:41;8.37;;;7.57;;
679;SDS011;322;48.846;9.230;2023-04-06T14:43:08;8.73;;;7.93;;
679;SDS011;322;48.846;9.230;2023-04-06T14:45:35;9.20;;;8.10;;
679;SDS011;322;48.846;9.230;2023-04-06T14:48:04;9.00;;;8.10;;
679;SDS011;322;48.846;9.230;2023-04-06T14:50:32;8.50;;;7.70;;
679;SDS011;322;48.846;9.230;2023-04-06T14:53:01;7.90;;;7.30;;
679;SDS011;322;48.846;9.230;2023-04-06T14:55:27;9.47;;;8.47;;
679;SDS011;322;48.846;9.230;2023-04-06T14:57:54;9.40;;;8.57;;
679;SDS011;322;48.846;9.230;2023-04-06T15:00:21;8.03;;;7.33;;
679;SDS011;322;48.846;9.230;2023-04-06T15:02:48;8.90;;;6.70;;
679;SDS011;322;48.846;9.230;2023-04-06T15:05:15;9.17;;;7.10;;
679;SDS011;322;48.846;9.230;2023-04-06T15:07:42;7.50;;;6.80;;
679;SDS011;322;48.846;9.230;2023-04-06T15:10:10;11.50;;;7.57;;
679;SDS011;322;48.846;9.230;2023-04-06T15:12:37;7.23;;;6.53;;
679;SDS011;322;48.846;9.230;2023-04-06T15:15:05;8.53;;;7.33;;
679;SDS011;322;48.846;9.230;2023-04-06T15:17:32;6.90;;;6.20;;
679;SDS011;322;48.846;9.230;2023-04-06T15:19:59;7.80;;;6.93;;
679;SDS011;322;48.846;9.230;2023-04-06T15:22:26;7.30;;;6.70;;
679;SDS011;322;48.846;9.230;2023-04-06T15:24:53;8.00;;;7.30;;